Time;durP1;ratioP1;P1;durP2;ratioP2;P2;SDS_P1;SDS_P2;PMS_P1;PMS_P2;Temp;Humidity;BMP_temperature;BMP_pressure;BME280_temperature;BME280_humidity;BME280_pressure;Samples;Min_cycle;Max_cycle;Signal;HPM_P1;HPM_P2
2023/01/20 00:00:10;;;;;;;15.43;13.83;;;;;;;-2.28;100.00;99751.91;5026987;28;20197;-75
2023/01/20 00:02:35;;;;;;;16.33;14.60;;;;;;;-2.30;100.00;99754.41;5022272;28;20189;-75
2023/01/20 00:05:07;;;;;;;15.37;13.77;;;;;;;-2.31;100.00;99751.81;5021738;28;20197;-75
2023/01/20 00:07:33;;;;;;;14.93;13.37;;;;;;;-2.33;100.00;99754.28;5019356;28;20196;-75
2023/01/20 00:09:59;;;;;;;14.47;13.07;;;;;;;-2.34;100.00;99755.09;5020950;28;20220;-73
2023/01/20 00:12:24;;;;;;;15.13;13.63;;;;;;;-2.34;100.00;99759.28;5023399;28;20215;-74
2023/01/20 00:14:49;;;;;;;15.27;13.60;;;;;;;-2.35;100.00;99766.03;5011958;28;20241;-72
2023/01/20 00:17:15;;;;;;;14.43;12.93;;;;;;;-2.38;100.00;99765.94;5022128;28;20736;-73
2023/01/20 00:19:40;;;;;;;14.87;13.27;;;;;;;-2.39;100.00;99760.81;5022103;28;20199;-70
2023/01/20 00:22:05;;;;;;;15.20;13.63;;;;;;;-2.39;100.00;99768.44;5018993;28;20225;-72
2023/01/20 00:24:31;;;;;;;13.80;12.37;;;;;;;-2.40;100.00;99764.16;5025904;28;20185;-73
2023/01/20 00:26:57;;;;;;;13.50;12.10;;;;;;;-2.41;100.00;99759.91;5027668;28;20197;-73
2023/01/20 00:29:22;;;;;;;12.30;11.00;;;;;;;-2.43;100.00;99771.66;5017006;28;20568;-72
2023/01/20 00:31:47;;;;;;;13.87;12.43;;;;;;;-2.45;100.00;99764.00;5015346;28;20220;-73
2023/01/20 00:34:13;;;;;;;12.20;10.90;;;;;;;-2.47;100.00;99773.22;5021505;28;20246;-73
2023/01/20 00:36:38;;;;;;;11.80;10.57;;;;;;;-2.50;100.00;99774.00;5023390;28;20680;-72
2023/01/20 00:39:04;;;;;;;12.10;10.70;;;;;;;-2.52;100.00;99772.19;5025782;28;20188;-77
2023/01/20 00:41:29;;;;;;;10.93;9.70;;;;;;;-2.55;100.00;99774.59;5024662;28;20772;-74
2023/01/20 00:43:54;;;;;;;11.47;9.93;;;;;;;-2.58;100.00;99784.66;5023324;28;20185;-74
2023/01/20 00:46:21;;;;;;;11.20;10.00;;;;;;;-2.62;100.00;99776.06;5015788;28;20750;-75
2023/01/20 00:48:47;;;;;;;9.83;8.87;;;;;;;-2.65;100.00;99786.09;5015145;28;20199;-76
2023/01/20 00:51:12;;;;;;;10.73;9.17;;;;;;;-2.70;100.00;99783.38;5014939;28;20217;-72
2023/01/20 00:53:38;;;;;;;10.33;9.33;;;;;;;-2.71;100.00;99793.47;5018531;28;20223;-72
2023/01/20 00:56:03;;;;;;;9.97;8.87;;;;;;;-2.75;100.00;99795.03;5020518;28;20216;-76
2023/01/20 00:58:29;;;;;;;10.70;9.60;;;;;;;-2.76;100.00;99785.72;5054376;28;20204;-76
2023/01/20 01:00:55;;;;;;;11.43;9.97;;;;;;;-2.79;100.00;99786.44;5034683;28;20264;-73
2023/01/20 01:03:21;;;;;;;10.37;9.27;;;;;;;-2.79;100.00;99801.63;5020506;28;20193;-72
2023/01/20 01:05:46;;;;;;;10.23;9.20;;;;;;;-2.82;100.00;99793.94;5013668;28;20207;-72
2023/01/20 01:08:12;;;;;;;9.70;8.53;;;;;;;-2.84;100.00;99797.22;5019040;28;20862;-73
2023/01/20 01:10:38;;;;;;;9.37;8.47;;;;;;;-2.86;100.00;99809.81;5012632;28;20211;-73
2023/01/20 01:13:04;;;;;;;9.53;8.50;;;;;;;-2.88;100.00;99805.53;5014669;28;20193;-72
2023/01/20 01:15:29;;;;;;;9.10;8.20;;;;;;;-2.89;100.00;99817.31;5023507;28;20184;-72
2023/01/20 01:17:56;;;;;;;9.97;8.97;;;;;;;-2.88;100.00;99818.19;5021300;28;20759;-73
2023/01/20 01:20:22;;;;;;;9.83;8.20;;;;;;;-2.87;100.00;99810.63;5017145;28;20212;-72
2023/01/20 01:22:47;;;;;;;9.03;8.13;;;;;;;-2.88;100.00;99815.66;5029898;28;20207;-73
2023/01/20 01:25:13;;;;;;;9.20;8.23;;;;;;;-2.92;100.00;99819.72;5021188;28;20199;-72
2023/01/20 01:27:38;;;;;;;9.10;8.20;;;;;;;-2.96;100.00;99817.88;5026046;28;20572;-72
2023/01/20 01:30:04;;;;;;;8.87;8.00;;;;;;;-2.99;100.00;99825.38;5018180;28;20188;-73
2023/01/20 01:32:30;;;;;;;9.77;8.87;;;;;;;-3.00;100.00;99836.28;5020422;28;20209;-72
2023/01/20 01:34:55;;;;;;;8.87;8.07;;;;;;;-3.00;100.00;99836.28;5015012;28;20249;-75
2023/01/20 01:37:21;;;;;;;9.43;8.40;;;;;;;-3.01;100.00;99839.63;5017997;28;20997;-72
2023/01/20 01:39:46;;;;;;;9.73;8.17;;;;;;;-3.03;100.00;99851.34;5027867;28;20607;-73
2023/01/20 01:42:13;;;;;;;9.07;8.00;;;;;;;-3.03;100.00;99838.69;5019244;28;20204;-77
2023/01/20 01:45:10;;;;;;;8.20;7.40;;;;;;;-3.03;100.00;99849.72;5025161;28;20237;-75
2023/01/20 01:48:00;;;;;;;7.67;6.97;;;;;;;-3.07;100.00;99850.38;5024351;28;20201;-74
2023/01/20 01:50:35;;;;;;;8.03;7.23;;;;;;;-3.09;100.00;99849.47;5017334;28;20247;-72
2023/01/20 01:53:00;;;;;;;8.03;6.73;;;;;;;-3.12;100.00;99846.78;5022328;28;20199;-75
2023/01/20 01:55:30;;;;;;;7.63;6.87;;;;;;;-3.16;100.00;99858.47;5025207;28;20188;-74
2023/01/20 01:57:57;;;;;;;7.13;6.43;;;;;;;-3.19;100.00;99855.81;5021115;28;20571;-74
2023/01/20 02:00:22;;;;;;;7.30;6.13;;;;;;;-3.21;100.00;99859.94;5022664;28;20303;-74
2023/01/20 02:02:48;;;;;;;7.00;6.30;;;;;;;-3.22;100.00;99859.09;5026155;28;20277;-71
2023/01/20 02:05:14;;;;;;;6.13;5.53;;;;;;;-3.20;100.00;99854.09;5015219;28;20200;-72
2023/01/20 02:07:43;;;;;;;6.77;6.07;;;;;;;-3.19;100.00;99853.28;5023029;28;20238;-71
2023/01/20 02:10:09;;;;;;;7.10;6.03;;;;;;;-3.19;100.00;99862.56;5013168;28;20668;-73
2023/01/20 02:12:35;;;;;;;7.13;6.43;;;;;;;-3.18;100.00;99869.34;5019817;28;20254;-73
2023/01/20 02:15:02;;;;;;;6.27;5.67;;;;;;;-3.18;100.00;99866.81;5020495;28;20731;-74
2023/01/20 02:17:34;;;;;;;6.40;5.70;;;;;;;-3.16;100.00;99870.25;5039013;28;20540;-72
2023/01/20 02:20:24;;;;;;;6.73;6.00;;;;;;;-3.15;100.00;99861.84;5011439;28;20826;-71
2023/01/20 02:23:11;;;;;;;6.90;6.03;;;;;;;-3.15;100.00;99866.91;5013095;28;20582;-72
2023/01/20 02:26:06;;;;;;;6.90;6.20;;;;;;;-3.14;100.00;99871.19;5019262;28;20565;-71
2023/01/20 02:28:53;;;;;;;6.80;5.90;;;;;;;-3.16;100.00;99868.59;5015965;28;20208;-73
2023/01/20 02:31:45;;;;;;;6.60;5.97;;;;;;;-3.17;100.00;99878.66;5017902;28;20693;-73
2023/01/20 02:34:16;;;;;;;6.57;5.97;;;;;;;-3.19;100.00;99886.19;5011583;28;20220;-73
2023/01/20 02:36:52;;;;;;;6.17;5.63;;;;;;;-3.20;100.00;99878.56;5019711;28;20270;-73
2023/01/20 02:39:42;;;;;;;6.50;5.90;;;;;;;-3.19;100.00;99885.34;5021253;28;20242;-75
2023/01/20 02:42:09;;;;;;;6.60;5.73;;;;;;;-3.20;100.00;99889.53;5017410;28;20212;-74
2023/01/20 02:44:53;;;;;;;6.40;5.77;;;;;;;-3.17;100.00;99878.66;5014939;28;20310;-78
2023/01/20 02:47:22;;;;;;;5.90;5.23;;;;;;;-3.14;100.00;99897.38;5020029;28;20292;-76
2023/01/20 02:50:08;;;;;;;7.03;6.20;;;;;;;-3.13;100.00;99891.50;5022132;28;20282;-72
2023/01/20 02:52:38;;;;;;;5.70;5.20;;;;;;;-3.13;100.00;99895.69;5022031;28;20195;-71
2023/01/20 02:55:08;;;;;;;6.23;5.40;;;;;;;-3.15;100.00;99895.66;5017883;28;20215;-72
2023/01/20 02:57:42;;;;;;;6.70;5.70;;;;;;;-3.16;100.00;99898.09;5027300;28;20566;-72
2023/01/20 03:00:15;;;;;;;7.47;5.80;;;;;;;-3.20;100.00;99902.19;5021019;28;20228;-72
2023/01/20 03:02:43;;;;;;;7.40;6.70;;;;;;;-3.22;100.00;99906.31;5014808;28;20250;-72
2023/01/20 03:05:14;;;;;;;7.00;6.30;;;;;;;-3.25;100.00;99911.25;5043765;28;20190;-75
2023/01/20 03:07:43;;;;;;;6.10;5.50;;;;;;;-3.28;100.00;99912.00;5048234;28;20276;-72
2023/01/20 03:10:13;;;;;;;6.60;6.00;;;;;;;-3.28;100.00;99913.66;5022137;28;20669;-71
2023/01/20 03:12:49;;;;;;;7.57;5.67;;;;;;;-3.32;100.00;99912.66;5018384;28;20678;-75
2023/01/20 03:15:15;;;;;;;6.77;5.97;;;;;;;-3.33;100.00;99922.72;5012994;28;20212;-78
2023/01/20 03:17:40;;;;;;;6.70;5.80;;;;;;;-3.31;100.00;99921.13;5014885;28;20198;-74
2023/01/20 03:20:07;;;;;;;5.87;5.33;;;;;;;-3.32;100.00;99927.84;5014927;28;20215;-75
2023/01/20 03:22:32;;;;;;;6.67;5.77;;;;;;;-3.32;100.00;99919.41;5017902;28;20184;-71
2023/01/20 03:24:58;;;;;;;6.07;5.47;;;;;;;-3.32;100.00;99925.31;5018443;28;20278;-71
2023/01/20 03:27:24;;;;;;;6.20;5.50;;;;;;;-3.32;100.00;99927.00;5011134;28;20194;-77
2023/01/20 03:29:49;;;;;;;6.20;5.60;;;;;;;-3.30;100.00;99933.00;5012552;28;20193;-74
2023/01/20 03:32:16;;;;;;;6.50;5.80;;;;;;;-3.29;100.00;99932.19;5013396;28;20216;-75
2023/01/20 03:34:42;;;;;;;6.40;5.80;;;;;;;-3.28;100.00;99933.91;5013069;28;20303;-74
2023/01/20 03:37:11;;;;;;;5.67;5.17;;;;;;;-3.28;100.00;99937.28;5013517;28;20188;-73
2023/01/20 03:39:38;;;;;;;5.97;5.37;;;;;;;-3.28;100.00;99938.97;5017518;28;20188;-76
2023/01/20 03:42:18;;;;;;;5.70;4.90;;;;;;;-3.28;100.00;99936.44;5013566;28;20212;-74
2023/01/20 03:44:59;;;;;;;6.03;5.30;;;;;;;-3.26;100.00;99942.44;5018558;28;20295;-74
2023/01/20 03:47:42;;;;;;;6.10;4.87;;;;;;;-3.27;100.00;99954.22;5011481;28;20188;-74
2023/01/20 03:50:22;;;;;;;5.50;5.00;;;;;;;-3.27;100.00;99951.69;5015163;28;20677;-72
2023/01/20 03:52:56;;;;;;;6.57;5.60;;;;;;;-3.30;100.00;99951.56;5014940;28;20224;-72
2023/01/20 03:55:27;;;;;;;5.17;4.67;;;;;;;-3.30;100.00;99953.22;5014006;28;22119;-73
2023/01/20 03:58:10;;;;;;;4.80;4.40;;;;;;;-3.32;100.00;99958.22;5016179;28;20724;-74
2023/01/20 04:00:40;;;;;;;5.60;4.63;;;;;;;-3.31;100.00;99961.63;5019287;28;20209;-74
2023/01/20 04:03:11;;;;;;;4.93;4.43;;;;;;;-3.31;100.00;99964.16;5019788;28;20663;-74
2023/01/20 04:05:39;;;;;;;5.27;4.77;;;;;;;-3.32;100.00;99960.75;5021846;28;20270;-74
2023/01/20 04:08:08;;;;;;;5.33;4.47;;;;;;;-3.32;100.00;99967.47;5022663;28;20192;-74
2023/01/20 04:10:37;;;;;;;4.80;4.30;;;;;;;-3.33;100.00;99968.28;5023501;28;20291;-71
2023/01/20 04:13:03;;;;;;;5.40;4.40;;;;;;;-3.35;100.00;99964.81;5017562;28;20225;-70
2023/01/20 04:15:33;;;;;;;4.87;4.47;;;;;;;-3.36;100.00;99963.97;5013296;28;20188;-73
2023/01/20 04:18:11;;;;;;;4.70;4.10;;;;;;;-3.40;100.00;99972.22;5015093;28;20382;-70
2023/01/20 04:20:37;;;;;;;5.17;4.33;;;;;;;-3.41;100.00;99965.44;5026179;28;20211;-71
2023/01/20 04:23:05;;;;;;;4.50;4.10;;;;;;;-3.43;100.00;99972.97;5019148;28;20214;-76
2023/01/20 04:25:31;;;;;;;3.87;3.53;;;;;;;-3.43;100.00;99979.66;5027635;28;20184;-73
2023/01/20 04:27:57;;;;;;;4.50;4.10;;;;;;;-3.42;100.00;99986.47;5020880;28;22380;-72
2023/01/20 04:30:22;;;;;;;4.23;3.83;;;;;;;-3.42;100.00;99984.81;5010477;28;20324;-72
2023/01/20 04:32:47;;;;;;;4.23;3.83;;;;;;;-3.42;100.00;99987.34;5017669;28;20198;-71
2023/01/20 04:35:15;;;;;;;3.83;3.43;;;;;;;-3.43;100.00;99993.22;5026070;28;20215;-73
2023/01/20 04:37:40;;;;;;;4.80;3.63;;;;;;;-3.44;100.00;99993.13;5022002;28;20188;-71
2023/01/20 04:40:06;;;;;;;4.53;3.80;;;;;;;-3.44;100.00;99994.00;5015551;28;20702;-73
2023/01/20 04:42:32;;;;;;;4.07;3.40;;;;;;;-3.45;100.00;99997.34;5024197;28;20203;-74
2023/01/20 04:44:57;;;;;;;4.23;3.67;;;;;;;-3.46;100.00;99997.25;5021300;28;20180;-76
2023/01/20 04:47:23;;;;;;;4.83;4.33;;;;;;;-3.49;100.00;100008.09;5016210;28;20183;-73
2023/01/20 04:49:48;;;;;;;5.13;3.63;;;;;;;-3.52;100.00;100002.91;5035967;28;20184;-74
2023/01/20 04:52:13;;;;;;;4.20;3.80;;;;;;;-3.54;100.00;100004.50;5016170;28;20227;-73
2023/01/20 04:54:39;;;;;;;4.70;4.20;;;;;;;-3.54;100.00;100014.63;5030108;28;20220;-73
2023/01/20 04:57:04;;;;;;;6.33;5.53;;;;;;;-3.56;100.00;100021.31;5015906;28;20192;-73
2023/01/20 04:59:29;;;;;;;7.10;5.47;;;;;;;-3.55;100.00;100023.00;5020341;28;20266;-73
2023/01/20 05:01:55;;;;;;;6.67;5.97;;;;;;;-3.56;100.00;100022.16;5015505;28;20454;-73
2023/01/20 05:04:20;;;;;;;7.73;6.73;;;;;;;-3.59;100.00;100021.16;5019519;28;20188;-74
2023/01/20 05:06:45;;;;;;;8.43;6.60;;;;;;;-3.61;100.00;100036.25;5019334;28;20192;-73
2023/01/20 05:09:15;;;;;;;7.33;6.20;;;;;;;-3.63;100.00;100031.94;5016463;28;20196;-71
2023/01/20 05:11:41;;;;;;;7.30;5.87;;;;;;;-3.68;100.00;100032.59;5028162;28;20215;-74
2023/01/20 05:14:07;;;;;;;7.63;6.13;;;;;;;-3.71;100.00;100036.66;5050382;28;20195;-71
2023/01/20 05:16:33;;;;;;;6.20;5.17;;;;;;;-3.75;100.00;100039.84;5026789;28;20275;-73
2023/01/20 05:18:59;;;;;;;5.87;5.30;;;;;;;-3.78;100.00;100038.06;5027419;28;20184;-70
2023/01/20 05:21:25;;;;;;;6.63;5.43;;;;;;;-3.83;100.00;100040.38;5021060;28;20757;-70
2023/01/20 05:23:54;;;;;;;6.47;5.20;;;;;;;-3.87;100.00;100046.09;5026886;28;20215;-71
2023/01/20 05:26:21;;;;;;;5.57;5.07;;;;;;;-3.91;100.00;100050.94;5029352;28;20279;-72
2023/01/20 05:28:46;;;;;;;4.50;4.10;;;;;;;-3.93;100.00;100053.38;5028972;28;20725;-71
2023/01/20 05:31:12;;;;;;;5.30;4.37;;;;;;;-3.94;100.00;100054.19;5028327;28;20314;-71
2023/01/20 05:33:38;;;;;;;5.70;5.03;;;;;;;-3.93;100.00;100068.53;5011585;28;20219;-71
2023/01/20 05:36:08;;;;;;;5.53;4.60;;;;;;;-3.92;100.00;100061.84;5023175;28;20219;-70
2023/01/20 05:38:34;;;;;;;7.10;5.57;;;;;;;-3.90;100.00;100066.16;5017665;28;20193;-69
2023/01/20 05:41:04;;;;;;;6.20;5.17;;;;;;;-3.93;100.00;100066.00;5016900;28;20631;-75
2023/01/20 05:43:29;;;;;;;7.20;5.43;;;;;;;-3.95;100.00;100072.69;5017810;28;20207;-75
2023/01/20 05:45:55;;;;;;;5.93;5.33;;;;;;;-3.99;100.00;100075.88;5024822;28;20314;-76
2023/01/20 05:48:21;;;;;;;5.83;5.30;;;;;;;-4.01;100.00;100080.84;5017765;28;20187;-74
2023/01/20 05:50:46;;;;;;;6.43;5.53;;;;;;;-4.03;100.00;100079.91;5020776;28;20220;-73
2023/01/20 05:53:12;;;;;;;6.33;5.73;;;;;;;-4.04;100.00;100080.72;5019830;28;20314;-75
2023/01/20 05:55:38;;;;;;;6.00;5.30;;;;;;;-4.05;100.00;100089.09;5011863;28;20192;-73
2023/01/20 05:58:03;;;;;;;7.00;5.83;;;;;;;-4.07;100.00;100094.84;5013380;28;20663;-72
2023/01/20 06:00:29;;;;;;;7.80;5.80;;;;;;;-4.09;100.00;100091.41;5019978;28;20582;-71
2023/01/20 06:02:55;;;;;;;6.37;5.20;;;;;;;-4.11;100.00;100093.84;5019811;28;20233;-71
2023/01/20 06:05:20;;;;;;;6.20;5.60;;;;;;;-4.11;100.00;100098.91;5032457;28;20683;-71
2023/01/20 06:07:48;;;;;;;6.27;5.67;;;;;;;-4.09;100.00;100104.03;5024097;28;20191;-72
2023/01/20 06:10:13;;;;;;;7.37;5.43;;;;;;;-4.07;100.00;100105.84;5015106;28;20184;-71
2023/01/20 06:12:39;;;;;;;6.30;5.27;;;;;;;-4.02;100.00;100101.00;5022265;28;20192;-72
2023/01/20 06:15:05;;;;;;;6.97;6.13;;;;;;;-3.94;100.00;100098.81;5011457;28;20223;-73
2023/01/20 06:17:30;;;;;;;7.17;6.33;;;;;;;-3.88;100.00;100105.03;5011476;28;20194;-71
2023/01/20 06:19:55;;;;;;;7.63;6.27;;;;;;;-3.81;100.00;100103.66;5017620;28;20270;-72
2023/01/20 06:22:21;;;;;;;6.47;5.77;;;;;;;-3.77;100.00;100103.00;5016296;28;20207;-72
2023/01/20 06:24:46;;;;;;;6.00;5.40;;;;;;;-3.75;100.00;100106.47;5028964;28;20674;-71
2023/01/20 06:27:11;;;;;;;6.27;5.67;;;;;;;-3.73;100.00;100104.88;5028259;28;20195;-72
2023/01/20 06:29:37;;;;;;;5.83;5.20;;;;;;;-3.71;100.00;100115.06;5031481;28;20188;-72
2023/01/20 06:32:02;;;;;;;6.70;5.40;;;;;;;-3.71;100.00;100117.59;5018628;28;20215;-68
2023/01/20 06:34:28;;;;;;;5.33;4.83;;;;;;;-3.71;100.00;100115.94;5025084;28;20269;-72
2023/01/20 06:36:53;;;;;;;6.40;5.70;;;;;;;-3.69;100.00;100121.06;5027164;28;20184;-71
2023/01/20 06:39:18;;;;;;;5.70;5.10;;;;;;;-3.68;100.00;100117.75;5025747;28;20198;-70
2023/01/20 06:41:44;;;;;;;6.87;5.40;;;;;;;-3.67;100.00;100115.25;5016681;28;20271;-71
2023/01/20 06:44:09;;;;;;;5.93;5.13;;;;;;;-3.66;100.00;100123.72;5021526;28;20709;-70
2023/01/20 06:46:34;;;;;;;7.23;5.60;;;;;;;-3.65;100.00;100125.47;5015164;28;20187;-72
2023/01/20 06:49:00;;;;;;;5.97;5.37;;;;;;;-3.64;100.00;100126.31;5015679;28;20569;-73
2023/01/20 06:51:27;;;;;;;6.00;5.50;;;;;;;-3.65;100.00;100135.59;5019105;28;20252;-71
2023/01/20 06:53:53;;;;;;;6.07;5.47;;;;;;;-3.66;100.00;100133.84;5016310;28;20206;-71
2023/01/20 06:56:19;;;;;;;5.87;4.80;;;;;;;-3.68;100.00;100137.97;5010894;28;20185;-74
2023/01/20 06:58:44;;;;;;;6.33;5.47;;;;;;;-3.73;100.00;100135.22;5020246;28;20744;-77
2023/01/20 07:01:17;;;;;;;6.37;5.73;;;;;;;-3.72;100.00;100148.72;5023273;28;20775;-76
2023/01/20 07:03:43;;;;;;;19.07;13.47;;;;;;;-3.73;100.00;100150.41;5023195;28;20179;-74
2023/01/20 07:06:38;;;;;;;16.17;11.37;;;;;;;-3.74;100.00;100152.84;5017879;28;20246;-74
2023/01/20 07:09:07;;;;;;;12.90;9.33;;;;;;;-3.76;100.00;100152.78;5011082;28;20203;-72
2023/01/20 07:11:34;;;;;;;9.53;7.77;;;;;;;-3.78;100.00;100156.06;5015903;28;20315;-72
2023/01/20 07:13:59;;;;;;;7.93;6.57;;;;;;;-3.79;100.00;100161.91;5011562;28;20229;-72
2023/01/20 07:16:25;;;;;;;7.90;6.37;;;;;;;-3.80;100.00;100170.28;5017798;28;20295;-72
2023/01/20 07:18:51;;;;;;;8.17;6.57;;;;;;;-3.84;100.00;100160.00;5032205;28;20198;-75
2023/01/20 07:21:17;;;;;;;6.50;5.67;;;;;;;-3.85;100.00;100164.97;5043335;28;20203;-73
2023/01/20 07:23:44;;;;;;;5.77;5.17;;;;;;;-3.87;100.00;100166.59;5029786;28;20723;-72
2023/01/20 07:26:12;;;;;;;6.47;5.77;;;;;;;-3.89;100.00;100178.28;5020480;28;20241;-75
2023/01/20 07:28:38;;;;;;;6.00;5.27;;;;;;;-3.91;100.00;100184.94;5027946;28;20183;-71
2023/01/20 07:31:04;;;;;;;6.00;5.40;;;;;;;-3.94;100.00;100185.66;5014157;28;20207;-71
2023/01/20 07:33:30;;;;;;;6.07;4.90;;;;;;;-3.98;100.00;100184.63;5017771;28;20211;-71
2023/01/20 07:35:56;;;;;;;5.30;4.80;;;;;;;-3.99;100.00;100189.63;5015583;28;20215;-71
2023/01/20 07:38:21;;;;;;;6.07;5.20;;;;;;;-3.97;100.00;100190.56;5021207;28;20726;-72
2023/01/20 07:40:47;;;;;;;6.10;5.40;;;;;;;-3.97;100.00;100193.09;5024719;28;20212;-72
2023/01/20 07:43:12;;;;;;;7.87;6.70;;;;;;;-3.96;100.00;100196.47;5019273;28;20177;-74
2023/01/20 07:45:38;;;;;;;8.63;6.43;;;;;;;-3.92;100.00;100198.38;5036348;28;20183;-74
2023/01/20 07:48:03;;;;;;;6.63;5.97;;;;;;;-3.86;100.00;100212.16;5028858;28;20172;-73
2023/01/20 07:50:29;;;;;;;7.87;6.60;;;;;;;-3.77;100.00;100215.91;5030319;28;20216;-74
2023/01/20 07:52:54;;;;;;;9.77;7.57;;;;;;;-3.70;100.00;100226.41;5035582;28;20554;-74
2023/01/20 07:55:19;;;;;;;9.00;7.57;;;;;;;-3.62;100.00;100220.84;5026763;28;20992;-72
2023/01/20 07:57:45;;;;;;;8.87;7.40;;;;;;;-3.56;100.00;100224.53;5027722;28;20206;-73
2023/01/20 08:00:10;;;;;;;7.73;6.77;;;;;;;-3.48;100.00;100219.84;5023011;28;20922;-74
2023/01/20 08:02:37;;;;;;;7.43;6.73;;;;;;;-3.37;100.00;100233.84;5022560;28;20268;-76
2023/01/20 08:05:03;;;;;;;6.80;6.20;;;;;;;-3.27;100.00;100232.63;5027752;28;20181;-74
2023/01/20 08:07:28;;;;;;;9.00;6.80;;;;;;;-3.17;100.00;100231.38;5028179;28;20175;-74
2023/01/20 08:09:54;;;;;;;7.20;6.37;;;;;;;-3.07;100.00;100228.44;5033772;28;20235;-74
2023/01/20 08:12:19;;;;;;;6.63;5.90;;;;;;;-2.96;100.00;100238.22;5027412;28;20302;-73
2023/01/20 08:14:44;;;;;;;5.90;5.30;;;;;;;-2.87;100.00;100246.22;5033182;28;20268;-72
2023/01/20 08:17:10;;;;;;;6.60;5.47;;;;;;;-2.77;100.00;100247.50;5029070;28;20246;-74
2023/01/20 08:19:35;;;;;;;6.90;5.90;;;;;;;-2.70;100.00;100249.47;5033860;28;20527;-73
2023/01/20 08:22:00;;;;;;;6.23;5.63;;;;;;;-2.62;100.00;100245.63;5034091;28;20199;-75
2023/01/20 08:24:26;;;;;;;7.93;5.97;;;;;;;-2.52;100.00;100258.69;5026631;28;20316;-74
2023/01/20 08:26:51;;;;;;;6.70;5.83;;;;;;;-2.44;100.00;100254.84;5031408;28;20250;-74
2023/01/20 08:29:16;;;;;;;7.43;5.67;;;;;;;-2.35;100.00;100260.28;5038511;28;20221;-70
2023/01/20 08:31:42;;;;;;;6.93;5.80;;;;;;;-2.25;100.00;100269.16;5022109;28;20540;-71
2023/01/20 08:34:07;;;;;;;6.37;5.73;;;;;;;-2.16;100.00;100271.22;5025482;28;20214;-73
2023/01/20 08:36:35;;;;;;;7.03;6.20;;;;;;;-2.06;100.00;100272.47;5023160;28;20192;-71
2023/01/20 08:39:05;;;;;;;6.40;5.80;;;;;;;-1.96;100.00;100273.72;5025632;28;20247;-71
2023/01/20 08:41:34;;;;;;;6.93;5.80;;;;;;;-1.87;100.00;100285.09;5016949;28;20233;-71
2023/01/20 08:44:01;;;;;;;6.20;5.20;;;;;;;-1.78;100.00;100287.16;5027465;28;20189;-71
2023/01/20 08:46:27;;;;;;;6.13;5.53;;;;;;;-1.69;100.00;100282.47;5024102;28;20880;-73
2023/01/20 08:48:53;;;;;;;6.13;5.33;;;;;;;-1.62;100.00;100286.13;5025217;28;20264;-73
2023/01/20 08:51:30;;;;;;;5.63;5.03;;;;;;;-1.54;100.00;100289.81;5026255;28;20209;-71
2023/01/20 08:53:56;;;;;;;5.57;4.97;;;;;;;-1.46;100.00;100299.44;5016145;28;20271;-74
2023/01/20 08:56:21;;;;;;;5.67;5.17;;;;;;;-1.38;100.00;100303.13;5021657;28;20198;-74
2023/01/20 08:58:47;;;;;;;6.13;5.53;;;;;;;-1.30;100.00;100304.31;5035475;28;20189;-73
2023/01/20 09:01:15;;;;;;;6.87;6.10;;;;;;;-1.23;100.00;100308.81;5025941;28;20216;-73
2023/01/20 09:03:41;;;;;;;8.00;7.20;;;;;;;-1.15;100.00;100305.72;5020452;28;20243;-76
2023/01/20 09:06:07;;;;;;;8.60;7.70;;;;;;;-1.07;100.00;100319.56;5026229;28;20608;-76
2023/01/20 09:08:33;;;;;;;9.73;8.83;;;;;;;-1.00;100.00;100307.97;5027952;28;20186;-73
2023/01/20 09:11:07;;;;;;;9.03;8.13;;;;;;;-0.92;100.00;100319.31;5018737;28;20301;-73
2023/01/20 09:13:32;;;;;;;10.00;9.07;;;;;;;-0.85;100.00;100320.41;5023564;28;20204;-73
2023/01/20 09:15:58;;;;;;;9.07;8.17;;;;;;;-0.80;100.00;100319.75;5027063;28;20242;-75
2023/01/20 09:18:23;;;;;;;9.47;8.57;;;;;;;-0.73;100.00;100322.50;5027307;28;20215;-72
2023/01/20 09:20:48;;;;;;;9.93;8.47;;;;;;;-0.66;100.00;100319.41;5024226;28;20208;-76
2023/01/20 09:23:14;;;;;;;9.40;8.40;;;;;;;-0.60;100.00;100322.16;5014769;28;20198;-76
2023/01/20 09:25:39;;;;;;;9.90;8.90;;;;;;;-0.52;100.00;100324.97;5014155;28;20708;-77
2023/01/20 09:28:04;;;;;;;10.37;9.37;;;;;;;-0.49;100.00;100325.09;5029561;28;20174;-76
2023/01/20 09:30:30;;;;;;;10.33;9.10;;;;;;;-0.40;100.00;100338.16;5045724;28;20209;-78
2023/01/20 09:32:58;;;;;;;10.63;9.53;;;;;;;-0.36;100.00;100342.53;5060045;28;20175;-73
2023/01/20 09:35:24;;;;;;;10.33;9.33;;;;;;;-0.31;100.00;100332.56;5024528;28;20221;-72
2023/01/20 09:43:54;;;;;;;9.93;9.03;;;;;;;-0.14;100.00;100343.31;5017451;28;20201;-73
2023/01/20 09:46:23;;;;;;;10.13;9.17;;;;;;;-0.10;100.00;100346.81;5019130;28;20195;-74
2023/01/20 09:54:55;;;;;;;12.13;10.93;;;;;;;0.07;100.00;100368.66;5025540;28;21043;-72
2023/01/20 09:57:23;;;;;;;11.20;9.40;;;;;;;0.12;100.00;100361.16;5023965;28;20228;-72
2023/01/20 09:59:59;;;;;;;10.60;9.60;;;;;;;0.18;100.00;100368.13;5019330;28;20251;-73
2023/01/20 10:02:30;;;;;;;10.73;9.70;;;;;;;0.22;100.00;100365.78;5024477;28;20631;-74
2023/01/20 10:05:02;;;;;;;11.73;10.53;;;;;;;0.29;100.00;100370.25;5021146;28;20238;-74
2023/01/20 10:07:42;;;;;;;11.20;10.17;;;;;;;0.35;100.00;100372.13;5024585;28;20209;-76
2023/01/20 10:10:19;;;;;;;12.20;10.97;;;;;;;0.41;100.00;100364.72;5029249;28;20226;-70
2023/01/20 10:13:06;;;;;;;12.67;11.47;;;;;;;0.47;100.00;100369.16;5024908;28;20191;-72
2023/01/20 10:15:36;;;;;;;13.27;11.93;;;;;;;0.55;100.00;100366.84;5019711;28;20628;-72
2023/01/20 10:18:30;;;;;;;14.17;12.80;;;;;;;0.65;100.00;100362.94;5015860;28;20194;-72
2023/01/20 10:21:32;;;;;;;14.80;13.30;;;;;;;0.74;100.00;100368.31;5003864;28;20215;-76
2023/01/20 10:24:07;;;;;;;14.67;13.17;;;;;;;0.87;100.00;100361.94;5013212;28;20279;-76
2023/01/20 10:26:40;;;;;;;14.10;12.77;;;;;;;1.07;100.00;100365.09;5023896;28;20580;-75
2023/01/20 10:29:12;;;;;;;15.37;13.87;;;;;;;1.27;100.00;100368.25;5023220;28;20221;-76
2023/01/20 10:31:45;;;;;;;13.80;12.50;;;;;;;1.44;100.00;100361.09;5025451;28;20246;-73
2023/01/20 10:34:18;;;;;;;14.20;12.90;;;;;;;1.56;100.00;100362.28;5020866;28;20269;-72
2023/01/20 10:36:49;;;;;;;14.77;13.30;;;;;;;1.64;100.00;100361.69;5014838;28;20183;-72
2023/01/20 10:39:37;;;;;;;14.00;12.57;;;;;;;1.67;100.00;100363.47;5015847;28;20227;-74
2023/01/20 10:42:08;;;;;;;13.10;11.83;;;;;;;1.68;100.00;100360.94;5013119;28;20211;-75
2023/01/20 10:44:37;;;;;;;14.87;13.37;;;;;;;1.74;100.00;100359.41;5024455;28;20592;-75
2023/01/20 10:47:14;;;;;;;15.13;13.83;;;;;;;1.80;100.00;100357.03;5023966;28;20269;-75
2023/01/20 10:49:42;;;;;;;16.17;14.57;;;;;;;1.86;100.00;100364.84;5027565;28;20259;-75
2023/01/20 10:52:32;;;;;;;15.23;13.83;;;;;;;1.87;100.00;100364.03;5014621;28;20204;-71
2023/01/20 10:54:57;;;;;;;16.43;14.83;;;;;;;1.87;100.00;100368.28;5021225;28;20937;-74
2023/01/20 10:57:23;;;;;;;17.63;15.53;;;;;;;1.89;100.00;100364.94;5014290;28;20188;-74
2023/01/20 10:59:52;;;;;;;15.73;14.30;;;;;;;1.97;100.00;100368.53;5017429;28;20180;-76
2023/01/20 11:02:27;;;;;;;15.67;14.20;;;;;;;2.11;100.00;100362.97;5029772;28;20206;-75
2023/01/20 11:05:08;;;;;;;16.17;14.77;;;;;;;2.28;100.00;100360.84;5019972;28;20191;-77
2023/01/20 11:07:33;;;;;;;15.57;14.10;;;;;;;2.47;100.00;100363.88;5017746;28;20865;-75
2023/01/20 11:10:17;;;;;;;15.53;13.93;;;;;;;2.68;100.00;100364.41;5024017;28;20188;-75
2023/01/20 11:12:46;;;;;;;16.07;14.57;;;;;;;2.78;100.00;100370.59;5024236;28;20179;-76
2023/01/20 11:15:30;;;;;;;15.60;14.10;;;;;;;2.84;100.00;100377.56;5023319;28;20207;-76
2023/01/20 11:18:13;;;;;;;15.40;13.90;;;;;;;2.78;100.00;100377.44;5024939;28;20192;-71
2023/01/20 11:20:47;;;;;;;15.63;14.13;;;;;;;2.83;100.00;100375.81;5020211;28;20224;-73
2023/01/20 11:23:34;;;;;;;14.37;13.03;;;;;;;2.93;100.00;100380.34;5026365;28;20557;-74
2023/01/20 11:26:08;;;;;;;15.27;13.87;;;;;;;3.04;100.00;100372.91;5021226;28;20254;-74
2023/01/20 11:28:44;;;;;;;14.80;13.33;;;;;;;3.19;100.00;100380.94;5021595;28;20198;-74
2023/01/20 11:31:09;;;;;;;14.23;12.93;;;;;;;3.32;100.00;100389.75;5019039;28;20207;-74
2023/01/20 11:33:35;;;;;;;13.90;12.60;;;;;;;3.40;100.00;100379.69;5022388;28;20250;-73
2023/01/20 11:36:06;;;;;;;14.30;13.00;;;;;;;3.48;100.00;100374.72;5028548;28;20198;-74